sensor_id;sensor_type;location;lat;lon;timestamp;P1;durP1;ratioP1;P2;durP2;ratioP2
70148;SDS011;57514;52.164;5.282;2023-05-10T00:02:24;67.45;;;14.95;;
70148;SDS011;57514;52.164;5.282;2023-05-10T00:04:51;60.97;;;14.65;;
70148;SDS011;57514;52.164;5.282;2023-05-10T00:07:19;66.18;;;15.05;;
70148;SDS011;57514;52.164;5.282;2023-05-10T00:09:46;69.50;;;14.70;;
70148;SDS011;57514;52.164;5.282;2023-05-10T00:12:12;65.22;;;14.88;;
70148;SDS011;57514;52.164;5.282;2023-05-10T00:14:40;71.07;;;15.18;;
70148;SDS011;57514;52.164;5.282;2023-05-10T00:17:07;69.30;;;15.25;;
70148;SDS011;57514;52.164;5.282;2023-05-10T00:19:34;66.68;;;15.27;;
70148;SDS011;57514;52.164;5.282;2023-05-10T00:22:01;68.10;;;15.57;;
70148;SDS011;57514;52.164;5.282;2023-05-10T00:24:29;59.42;;;15.23;;
70148;SDS011;57514;52.164;5.282;2023-05-10T00:26:56;79.50;;;16.90;;
70148;SDS011;57514;52.164;5.282;2023-05-10T00:29:23;86.40;;;16.00;;
70148;SDS011;57514;52.164;5.282;2023-05-10T00:31:50;82.13;;;16.48;;
70148;SDS011;57514;52.164;5.282;2023-05-10T00:34:18;75.18;;;15.95;;
70148;SDS011;57514;52.164;5.282;2023-05-10T00:36:45;89.18;;;17.10;;
70148;SDS011;57514;52.164;5.282;2023-05-10T00:39:12;86.45;;;17.75;;
70148;SDS011;57514;52.164;5.282;2023-05-10T00:41:39;81.55;;;16.60;;
70148;SDS011;57514;52.164;5.282;2023-05-10T00:44:07;84.20;;;17.05;;
70148;SDS011;57514;52.164;5.282;2023-05-10T00:46:35;70.93;;;16.27;;
70148;SDS011;57514;52.164;5.282;2023-05-10T00:49:03;67.05;;;17.15;;
70148;SDS011;57514;52.164;5.282;2023-05-10T00:51:33;80.97;;;16.67;;
70148;SDS011;57514;52.164;5.282;2023-05-10T00:54:01;79.55;;;17.23;;
70148;SDS011;57514;52.164;5.282;2023-05-10T00:56:29;71.07;;;16.77;;
70148;SDS011;57514;52.164;5.282;2023-05-10T00:58:56;93.63;;;20.52;;
70148;SDS011;57514;52.164;5.282;2023-05-10T01:01:24;81.38;;;18.98;;
70148;SDS011;57514;52.164;5.282;2023-05-10T01:03:51;83.68;;;18.58;;
70148;SDS011;57514;52.164;5.282;2023-05-10T01:06:19;104.22;;;21.27;;
70148;SDS011;57514;52.164;5.282;2023-05-10T01:08:46;100.15;;;21.75;;
70148;SDS011;57514;52.164;5.282;2023-05-10T01:11:13;100.18;;;20.63;;
70148;SDS011;57514;52.164;5.282;2023-05-10T01:13:42;107.43;;;21.77;;
70148;SDS011;57514;52.164;5.282;2023-05-10T01:16:10;87.43;;;19.70;;
70148;SDS011;57514;52.164;5.282;2023-05-10T01:18:39;114.18;;;23.27;;
70148;SDS011;57514;52.164;5.282;2023-05-10T01:21:14;84.50;;;20.10;;
70148;SDS011;57514;52.164;5.282;2023-05-10T01:26:26;98.88;;;21.88;;
70148;SDS011;57514;52.164;5.282;2023-05-10T01:34:23;98.72;;;21.83;;
70148;SDS011;57514;52.164;5.282;2023-05-10T01:36:58;81.65;;;21.05;;
70148;SDS011;57514;52.164;5.282;2023-05-10T01:39:29;96.60;;;21.83;;
70148;SDS011;57514;52.164;5.282;2023-05-10T01:46:53;95.03;;;22.42;;
70148;SDS011;57514;52.164;5.282;2023-05-10T01:49:25;101.47;;;22.83;;
70148;SDS011;57514;52.164;5.282;2023-05-10T01:51:54;90.07;;;22.25;;
70148;SDS011;57514;52.164;5.282;2023-05-10T01:54:23;125.38;;;22.98;;
70148;SDS011;57514;52.164;5.282;2023-05-10T01:56:52;91.55;;;21.10;;
70148;SDS011;57514;52.164;5.282;2023-05-10T01:59:21;95.35;;;21.17;;
70148;SDS011;57514;52.164;5.282;2023-05-10T02:01:49;111.82;;;22.20;;
70148;SDS011;57514;52.164;5.282;2023-05-10T02:04:17;103.63;;;23.20;;
70148;SDS011;57514;52.164;5.282;2023-05-10T02:06:47;130.23;;;23.20;;
70148;SDS011;57514;52.164;5.282;2023-05-10T02:09:18;117.50;;;22.73;;
70148;SDS011;57514;52.164;5.282;2023-05-10T02:11:47;90.38;;;21.10;;
70148;SDS011;57514;52.164;5.282;2023-05-10T02:14:15;100.53;;;22.23;;
70148;SDS011;57514;52.164;5.282;2023-05-10T02:16:43;102.90;;;22.13;;
70148;SDS011;57514;52.164;5.282;2023-05-10T02:19:12;118.20;;;22.95;;
70148;SDS011;57514;52.164;5.282;2023-05-10T02:21:40;111.95;;;22.88;;
70148;SDS011;57514;52.164;5.282;2023-05-10T02:24:08;104.35;;;23.00;;
70148;SDS011;57514;52.164;5.282;2023-05-10T02:26:35;109.93;;;22.50;;
70148;SDS011;57514;52.164;5.282;2023-05-10T02:29:04;129.02;;;23.88;;
70148;SDS011;57514;52.164;5.282;2023-05-10T02:31:32;116.63;;;23.13;;
70148;SDS011;57514;52.164;5.282;2023-05-10T02:34:00;113.82;;;21.98;;
70148;SDS011;57514;52.164;5.282;2023-05-10T02:36:28;122.07;;;22.90;;
70148;SDS011;57514;52.164;5.282;2023-05-10T02:38:56;125.97;;;23.10;;
70148;SDS011;57514;52.164;5.282;2023-05-10T02:41:23;108.35;;;21.55;;
70148;SDS011;57514;52.164;5.282;2023-05-10T02:43:52;127.03;;;22.60;;
70148;SDS011;57514;52.164;5.282;2023-05-10T02:46:23;132.07;;;21.90;;
70148;SDS011;57514;52.164;5.282;2023-05-10T02:48:50;128.95;;;22.38;;
70148;SDS011;57514;52.164;5.282;2023-05-10T02:51:18;138.27;;;23.25;;
70148;SDS011;57514;52.164;5.282;2023-05-10T02:53:46;148.60;;;22.23;;
70148;SDS011;57514;52.164;5.282;2023-05-10T02:56:22;126.03;;;21.65;;
70148;SDS011;57514;52.164;5.282;2023-05-10T02:58:51;133.27;;;23.42;;
70148;SDS011;57514;52.164;5.282;2023-05-10T03:01:19;129.43;;;21.00;;
70148;SDS011;57514;52.164;5.282;2023-05-10T03:03:46;120.05;;;23.90;;
70148;SDS011;57514;52.164;5.282;2023-05-10T03:06:13;132.93;;;21.77;;
70148;SDS011;57514;52.164;5.282;2023-05-10T03:08:40;152.98;;;22.35;;
70148;SDS011;57514;52.164;5.282;2023-05-10T03:11:16;136.32;;;21.30;;
70148;SDS011;57514;52.164;5.282;2023-05-10T03:14:04;141.48;;;23.30;;
70148;SDS011;57514;52.164;5.282;2023-05-10T03:16:36;154.98;;;23.90;;
70148;SDS011;57514;52.164;5.282;2023-05-10T03:24:08;96.75;;;19.75;;
70148;SDS011;57514;52.164;5.282;2023-05-10T03:26:38;101.32;;;20.98;;
70148;SDS011;57514;52.164;5.282;2023-05-10T03:29:12;126.85;;;23.98;;
70148;SDS011;57514;52.164;5.282;2023-05-10T03:31:40;161.82;;;25.40;;
70148;SDS011;57514;52.164;5.282;2023-05-10T03:34:08;132.93;;;23.45;;
70148;SDS011;57514;52.164;5.282;2023-05-10T03:36:35;144.30;;;25.30;;
70148;SDS011;57514;52.164;5.282;2023-05-10T03:39:02;143.13;;;24.95;;
70148;SDS011;57514;52.164;5.282;2023-05-10T03:41:29;146.43;;;24.70;;
70148;SDS011;57514;52.164;5.282;2023-05-10T03:43:56;110.47;;;21.58;;
70148;SDS011;57514;52.164;5.282;2023-05-10T03:46:24;137.50;;;26.42;;
70148;SDS011;57514;52.164;5.282;2023-05-10T03:48:51;115.05;;;24.55;;
70148;SDS011;57514;52.164;5.282;2023-05-10T03:51:19;141.73;;;26.80;;
70148;SDS011;57514;52.164;5.282;2023-05-10T03:53:47;148.93;;;25.60;;
70148;SDS011;57514;52.164;5.282;2023-05-10T03:56:14;158.05;;;25.92;;
70148;SDS011;57514;52.164;5.282;2023-05-10T03:58:42;143.05;;;26.00;;
70148;SDS011;57514;52.164;5.282;2023-05-10T04:01:09;143.63;;;26.00;;
70148;SDS011;57514;52.164;5.282;2023-05-10T04:03:36;135.70;;;25.58;;
70148;SDS011;57514;52.164;5.282;2023-05-10T04:06:04;167.10;;;26.00;;
70148;SDS011;57514;52.164;5.282;2023-05-10T04:08:32;143.88;;;26.23;;
70148;SDS011;57514;52.164;5.282;2023-05-10T04:11:05;150.93;;;25.77;;
70148;SDS011;57514;52.164;5.282;2023-05-10T04:13:33;126.75;;;25.13;;
70148;SDS011;57514;52.164;5.282;2023-05-10T04:16:01;120.80;;;24.95;;
70148;SDS011;57514;52.164;5.282;2023-05-10T04:18:28;141.20;;;25.83;;
70148;SDS011;57514;52.164;5.282;2023-05-10T04:20:55;133.80;;;24.75;;
70148;SDS011;57514;52.164;5.282;2023-05-10T04:23:22;123.70;;;25.63;;
70148;SDS011;57514;52.164;5.282;2023-05-10T04:25:50;108.50;;;24.05;;
70148;SDS011;57514;52.164;5.282;2023-05-10T04:28:16;116.47;;;24.83;;
70148;SDS011;57514;52.164;5.282;2023-05-10T04:30:44;111.32;;;24.05;;
70148;SDS011;57514;52.164;5.282;2023-05-10T04:33:11;130.15;;;25.40;;
70148;SDS011;57514;52.164;5.282;2023-05-10T04:35:38;134.10;;;27.27;;
70148;SDS011;57514;52.164;5.282;2023-05-10T04:38:06;129.07;;;27.02;;
70148;SDS011;57514;52.164;5.282;2023-05-10T04:40:33;130.35;;;25.98;;
70148;SDS011;57514;52.164;5.282;2023-05-10T04:43:00;130.63;;;24.63;;
70148;SDS011;57514;52.164;5.282;2023-05-10T04:45:27;115.68;;;24.17;;
70148;SDS011;57514;52.164;5.282;2023-05-10T04:47:55;139.93;;;27.90;;
70148;SDS011;57514;52.164;5.282;2023-05-10T04:50:22;121.35;;;25.45;;
70148;SDS011;57514;52.164;5.282;2023-05-10T04:52:49;103.20;;;22.52;;
70148;SDS011;57514;52.164;5.282;2023-05-10T04:55:18;119.47;;;25.63;;
70148;SDS011;57514;52.164;5.282;2023-05-10T04:57:45;114.90;;;24.42;;
70148;SDS011;57514;52.164;5.282;2023-05-10T05:00:12;120.40;;;23.98;;
70148;SDS011;57514;52.164;5.282;2023-05-10T05:02:44;135.48;;;26.55;;
70148;SDS011;57514;52.164;5.282;2023-05-10T05:05:14;132.55;;;25.00;;
70148;SDS011;57514;52.164;5.282;2023-05-10T05:07:41;120.05;;;26.38;;
70148;SDS011;57514;52.164;5.282;2023-05-10T05:10:08;127.55;;;25.75;;
70148;SDS011;57514;52.164;5.282;2023-05-10T05:12:36;123.13;;;25.10;;
70148;SDS011;57514;52.164;5.282;2023-05-10T05:15:03;111.75;;;24.45;;
70148;SDS011;57514;52.164;5.282;2023-05-10T05:17:31;108.70;;;23.40;;
70148;SDS011;57514;52.164;5.282;2023-05-10T05:19:59;104.90;;;23.67;;
70148;SDS011;57514;52.164;5.282;2023-05-10T05:22:25;94.97;;;24.27;;
70148;SDS011;57514;52.164;5.282;2023-05-10T05:24:56;86.82;;;23.98;;
70148;SDS011;57514;52.164;5.282;2023-05-10T05:27:28;92.95;;;23.33;;
70148;SDS011;57514;52.164;5.282;2023-05-10T05:29:56;87.00;;;23.67;;
70148;SDS011;57514;52.164;5.282;2023-05-10T05:32:23;94.25;;;23.38;;
70148;SDS011;57514;52.164;5.282;2023-05-10T05:34:51;90.55;;;23.50;;
70148;SDS011;57514;52.164;5.282;2023-05-10T05:37:19;85.68;;;21.98;;
70148;SDS011;57514;52.164;5.282;2023-05-10T05:39:47;86.53;;;21.67;;
70148;SDS011;57514;52.164;5.282;2023-05-10T05:42:14;82.38;;;21.30;;
70148;SDS011;57514;52.164;5.282;2023-05-10T05:44:43;76.00;;;21.75;;
70148;SDS011;57514;52.164;5.282;2023-05-10T05:47:10;83.65;;;20.98;;
70148;SDS011;57514;52.164;5.282;2023-05-10T05:49:38;83.38;;;22.00;;
70148;SDS011;57514;52.164;5.282;2023-05-10T05:52:05;85.60;;;23.77;;
70148;SDS011;57514;52.164;5.282;2023-05-10T05:54:32;70.55;;;20.20;;
70148;SDS011;57514;52.164;5.282;2023-05-10T05:57:00;63.00;;;17.17;;
70148;SDS011;57514;52.164;5.282;2023-05-10T05:59:27;63.05;;;17.95;;
70148;SDS011;57514;52.164;5.282;2023-05-10T06:01:55;64.50;;;17.63;;
70148;SDS011;57514;52.164;5.282;2023-05-10T06:04:22;59.10;;;16.48;;
70148;SDS011;57514;52.164;5.282;2023-05-10T06:06:49;50.80;;;14.63;;
70148;SDS011;57514;52.164;5.282;2023-05-10T06:09:16;47.50;;;14.55;;
70148;SDS011;57514;52.164;5.282;2023-05-10T06:11:43;43.92;;;12.93;;
70148;SDS011;57514;52.164;5.282;2023-05-10T06:14:11;45.65;;;14.43;;
70148;SDS011;57514;52.164;5.282;2023-05-10T06:16:38;51.97;;;13.98;;
70148;SDS011;57514;52.164;5.282;2023-05-10T06:19:05;39.60;;;13.13;;
70148;SDS011;57514;52.164;5.282;2023-05-10T06:21:33;42.03;;;13.02;;
70148;SDS011;57514;52.164;5.282;2023-05-10T06:24:01;47.00;;;13.13;;
70148;SDS011;57514;52.164;5.282;2023-05-10T06:26:29;40.63;;;12.35;;
70148;SDS011;57514;52.164;5.282;2023-05-10T06:28:56;31.40;;;11.57;;
70148;SDS011;57514;52.164;5.282;2023-05-10T06:31:23;38.17;;;12.25;;
70148;SDS011;57514;52.164;5.282;2023-05-10T06:33:50;30.55;;;10.32;;
70148;SDS011;57514;52.164;5.282;2023-05-10T06:36:21;32.80;;;11.15;;
70148;SDS011;57514;52.164;5.282;2023-05-10T06:38:50;35.33;;;11.75;;
70148;SDS011;57514;52.164;5.282;2023-05-10T06:41:18;31.63;;;11.27;;
70148;SDS011;57514;52.164;5.282;2023-05-10T06:43:45;32.97;;;10.95;;
70148;SDS011;57514;52.164;5.282;2023-05-10T06:46:12;32.20;;;10.95;;
70148;SDS011;57514;52.164;5.282;2023-05-10T06:48:39;33.95;;;11.27;;
70148;SDS011;57514;52.164;5.282;2023-05-10T06:51:06;29.17;;;11.50;;
70148;SDS011;57514;52.164;5.282;2023-05-10T06:53:33;29.13;;;10.52;;
70148;SDS011;57514;52.164;5.282;2023-05-10T06:56:00;25.73;;;8.77;;
70148;SDS011;57514;52.164;5.282;2023-05-10T06:58:29;28.08;;;10.10;;
70148;SDS011;57514;52.164;5.282;2023-05-10T07:01:01;27.35;;;10.02;;
70148;SDS011;57514;52.164;5.282;2023-05-10T07:03:29;29.15;;;10.38;;
70148;SDS011;57514;52.164;5.282;2023-05-10T07:05:59;29.95;;;9.95;;
70148;SDS011;57514;52.164;5.282;2023-05-10T07:08:27;29.45;;;10.45;;
70148;SDS011;57514;52.164;5.282;2023-05-10T07:10:59;30.65;;;11.15;;
70148;SDS011;57514;52.164;5.282;2023-05-10T07:13:26;28.30;;;10.90;;
70148;SDS011;57514;52.164;5.282;2023-05-10T07:15:53;27.70;;;11.02;;
70148;SDS011;57514;52.164;5.282;2023-05-10T07:18:20;26.33;;;9.38;;
70148;SDS011;57514;52.164;5.282;2023-05-10T07:20:48;24.55;;;10.05;;
70148;SDS011;57514;52.164;5.282;2023-05-10T07:23:15;25.98;;;9.20;;
70148;SDS011;57514;52.164;5.282;2023-05-10T07:25:50;24.73;;;9.25;;
70148;SDS011;57514;52.164;5.282;2023-05-10T07:28:20;19.95;;;8.52;;
70148;SDS011;57514;52.164;5.282;2023-05-10T07:30:46;19.85;;;9.15;;
70148;SDS011;57514;52.164;5.282;2023-05-10T07:33:14;20.77;;;8.50;;
70148;SDS011;57514;52.164;5.282;2023-05-10T07:35:42;23.83;;;8.55;;
70148;SDS011;57514;52.164;5.282;2023-05-10T07:38:09;25.38;;;9.40;;
70148;SDS011;57514;52.164;5.282;2023-05-10T07:43:06;20.48;;;8.80;;
70148;SDS011;57514;52.164;5.282;2023-05-10T07:45:33;21.92;;;9.40;;
70148;SDS011;57514;52.164;5.282;2023-05-10T07:48:01;23.52;;;10.07;;
70148;SDS011;57514;52.164;5.282;2023-05-10T07:50:28;23.20;;;9.98;;
70148;SDS011;57514;52.164;5.282;2023-05-10T07:52:55;25.35;;;10.15;;
70148;SDS011;57514;52.164;5.282;2023-05-10T07:55:22;26.58;;;10.55;;
70148;SDS011;57514;52.164;5.282;2023-05-10T07:57:49;27.52;;;10.88;;
70148;SDS011;57514;52.164;5.282;2023-05-10T08:00:17;24.98;;;10.70;;
70148;SDS011;57514;52.164;5.282;2023-05-10T08:02:46;23.23;;;10.27;;
70148;SDS011;57514;52.164;5.282;2023-05-10T08:05:13;24.85;;;10.30;;
70148;SDS011;57514;52.164;5.282;2023-05-10T08:07:41;25.33;;;10.85;;
70148;SDS011;57514;52.164;5.282;2023-05-10T08:10:08;20.70;;;10.48;;
70148;SDS011;57514;52.164;5.282;2023-05-10T08:12:37;26.83;;;11.00;;
70148;SDS011;57514;52.164;5.282;2023-05-10T08:15:05;24.90;;;10.68;;
70148;SDS011;57514;52.164;5.282;2023-05-10T08:17:32;21.52;;;9.80;;
70148;SDS011;57514;52.164;5.282;2023-05-10T08:20:00;21.90;;;9.85;;
70148;SDS011;57514;52.164;5.282;2023-05-10T08:22:27;23.50;;;10.38;;
70148;SDS011;57514;52.164;5.282;2023-05-10T08:24:54;21.63;;;10.32;;
70148;SDS011;57514;52.164;5.282;2023-05-10T08:27:21;20.83;;;9.48;;
70148;SDS011;57514;52.164;5.282;2023-05-10T08:29:49;22.75;;;10.40;;
70148;SDS011;57514;52.164;5.282;2023-05-10T08:32:16;22.90;;;9.95;;
70148;SDS011;57514;52.164;5.282;2023-05-10T08:34:43;22.45;;;9.95;;
70148;SDS011;57514;52.164;5.282;2023-05-10T08:37:10;20.42;;;9.13;;
70148;SDS011;57514;52.164;5.282;2023-05-10T08:39:39;20.55;;;9.15;;
70148;SDS011;57514;52.164;5.282;2023-05-10T08:42:07;19.40;;;9.32;;
70148;SDS011;57514;52.164;5.282;2023-05-10T08:44:35;21.48;;;9.48;;
70148;SDS011;57514;52.164;5.282;2023-05-10T08:47:04;21.33;;;9.25;;
70148;SDS011;57514;52.164;5.282;2023-05-10T08:49:33;23.13;;;9.48;;
70148;SDS011;57514;52.164;5.282;2023-05-10T08:52:02;18.70;;;9.10;;
70148;SDS011;57514;52.164;5.282;2023-05-10T08:54:31;18.80;;;8.90;;
70148;SDS011;57514;52.164;5.282;2023-05-10T08:56:58;19.00;;;8.45;;
70148;SDS011;57514;52.164;5.282;2023-05-10T08:59:25;19.50;;;8.70;;
70148;SDS011;57514;52.164;5.282;2023-05-10T09:01:53;17.98;;;7.75;;
70148;SDS011;57514;52.164;5.282;2023-05-10T09:04:21;17.95;;;8.15;;
70148;SDS011;57514;52.164;5.282;2023-05-10T09:06:48;15.98;;;7.65;;
70148;SDS011;57514;52.164;5.282;2023-05-10T09:09:16;16.15;;;7.38;;
70148;SDS011;57514;52.164;5.282;2023-05-10T09:11:43;17.05;;;7.43;;
70148;SDS011;57514;52.164;5.282;2023-05-10T09:14:11;14.27;;;6.68;;
70148;SDS011;57514;52.164;5.282;2023-05-10T09:16:39;15.98;;;7.00;;
70148;SDS011;57514;52.164;5.282;2023-05-10T09:19:07;13.85;;;6.43;;
70148;SDS011;57514;52.164;5.282;2023-05-10T09:21:35;16.35;;;6.75;;
70148;SDS011;57514;52.164;5.282;2023-05-10T09:24:06;13.57;;;6.18;;
70148;SDS011;57514;52.164;5.282;2023-05-10T09:26:33;13.32;;;5.53;;
70148;SDS011;57514;52.164;5.282;2023-05-10T09:29:03;12.68;;;6.03;;
70148;SDS011;57514;52.164;5.282;2023-05-10T09:31:44;13.48;;;6.80;;
70148;SDS011;57514;52.164;5.282;2023-05-10T09:34:28;12.85;;;5.88;;
70148;SDS011;57514;52.164;5.282;2023-05-10T09:36:56;13.98;;;5.70;;
70148;SDS011;57514;52.164;5.282;2023-05-10T09:39:33;12.95;;;6.00;;
70148;SDS011;57514;52.164;5.282;2023-05-10T09:42:02;14.65;;;6.65;;
70148;SDS011;57514;52.164;5.282;2023-05-10T09:44:32;13.70;;;6.47;;
70148;SDS011;57514;52.164;5.282;2023-05-10T09:47:03;14.30;;;6.47;;
70148;SDS011;57514;52.164;5.282;2023-05-10T09:49:30;14.32;;;5.80;;
70148;SDS011;57514;52.164;5.282;2023-05-10T09:52:01;13.75;;;6.40;;
70148;SDS011;57514;52.164;5.282;2023-05-10T09:54:29;16.95;;;6.30;;
70148;SDS011;57514;52.164;5.282;2023-05-10T09:56:56;12.18;;;6.32;;
70148;SDS011;57514;52.164;5.282;2023-05-10T09:59:25;13.88;;;6.40;;
70148;SDS011;57514;52.164;5.282;2023-05-10T10:01:57;12.80;;;5.97;;
70148;SDS011;57514;52.164;5.282;2023-05-10T10:04:25;13.73;;;6.03;;
70148;SDS011;57514;52.164;5.282;2023-05-10T10:07:02;14.63;;;6.40;;
70148;SDS011;57514;52.164;5.282;2023-05-10T10:09:30;15.38;;;6.90;;
70148;SDS011;57514;52.164;5.282;2023-05-10T10:11:58;12.75;;;6.13;;
70148;SDS011;57514;52.164;5.282;2023-05-10T10:14:26;13.73;;;5.75;;
70148;SDS011;57514;52.164;5.282;2023-05-10T10:16:54;13.25;;;6.50;;
70148;SDS011;57514;52.164;5.282;2023-05-10T10:19:26;15.52;;;6.20;;
70148;SDS011;57514;52.164;5.282;2023-05-10T10:21:53;12.27;;;5.47;;
70148;SDS011;57514;52.164;5.282;2023-05-10T10:24:20;13.25;;;5.53;;
70148;SDS011;57514;52.164;5.282;2023-05-10T10:26:47;13.13;;;5.43;;
70148;SDS011;57514;52.164;5.282;2023-05-10T10:29:23;13.48;;;5.88;;
70148;SDS011;57514;52.164;5.282;2023-05-10T10:34:32;14.45;;;5.93;;
70148;SDS011;57514;52.164;5.282;2023-05-10T10:37:03;13.90;;;5.63;;
70148;SDS011;57514;52.164;5.282;2023-05-10T10:39:31;14.05;;;5.85;;
70148;SDS011;57514;52.164;5.282;2023-05-10T10:41:58;13.18;;;5.57;;
70148;SDS011;57514;52.164;5.282;2023-05-10T10:50:06;13.88;;;5.97;;
70148;SDS011;57514;52.164;5.282;2023-05-10T10:52:38;12.95;;;5.75;;
70148;SDS011;57514;52.164;5.282;2023-05-10T10:55:07;13.13;;;5.70;;
70148;SDS011;57514;52.164;5.282;2023-05-10T10:57:48;13.00;;;6.43;;
70148;SDS011;57514;52.164;5.282;2023-05-10T11:02:50;11.82;;;4.43;;
70148;SDS011;57514;52.164;5.282;2023-05-10T11:06:01;12.27;;;5.18;;
70148;SDS011;57514;52.164;5.282;2023-05-10T11:08:17;10.18;;;4.30;;
70148;SDS011;57514;52.164;5.282;2023-05-10T11:13:31;12.52;;;4.45;;
70148;SDS011;57514;52.164;5.282;2023-05-10T11:16:17;12.02;;;4.35;;
70148;SDS011;57514;52.164;5.282;2023-05-10T11:19:03;10.25;;;4.40;;
70148;SDS011;57514;52.164;5.282;2023-05-10T11:21:33;11.73;;;4.50;;
70148;SDS011;57514;52.164;5.282;2023-05-10T11:24:13;9.98;;;4.00;;
70148;SDS011;57514;52.164;5.282;2023-05-10T11:26:41;11.32;;;4.75;;
70148;SDS011;57514;52.164;5.282;2023-05-10T11:29:09;11.40;;;4.35;;
70148;SDS011;57514;52.164;5.282;2023-05-10T11:31:43;10.75;;;4.50;;
70148;SDS011;57514;52.164;5.282;2023-05-10T11:34:12;10.43;;;3.97;;
70148;SDS011;57514;52.164;5.282;2023-05-10T11:36:40;11.18;;;4.50;;
70148;SDS011;57514;52.164;5.282;2023-05-10T11:39:07;12.18;;;4.63;;
70148;SDS011;57514;52.164;5.282;2023-05-10T11:41:36;10.25;;;4.35;;
70148;SDS011;57514;52.164;5.282;2023-05-10T11:44:03;11.07;;;3.88;;
70148;SDS011;57514;52.164;5.282;2023-05-10T11:46:30;9.95;;;4.38;;
70148;SDS011;57514;52.164;5.282;2023-05-10T11:48:59;12.55;;;4.80;;
70148;SDS011;57514;52.164;5.282;2023-05-10T11:51:28;11.45;;;5.07;;
70148;SDS011;57514;52.164;5.282;2023-05-10T11:53:55;11.57;;;4.63;;
70148;SDS011;57514;52.164;5.282;2023-05-10T11:56:23;12.15;;;4.50;;
70148;SDS011;57514;52.164;5.282;2023-05-10T11:58:56;12.55;;;4.95;;
70148;SDS011;57514;52.164;5.282;2023-05-10T12:01:24;11.10;;;4.55;;
70148;SDS011;57514;52.164;5.282;2023-05-10T12:03:52;9.73;;;3.90;;
70148;SDS011;57514;52.164;5.282;2023-05-10T12:06:21;11.00;;;4.25;;
70148;SDS011;57514;52.164;5.282;2023-05-10T12:08:48;11.10;;;3.90;;
70148;SDS011;57514;52.164;5.282;2023-05-10T12:11:20;11.27;;;4.18;;
70148;SDS011;57514;52.164;5.282;2023-05-10T12:13:51;10.70;;;4.53;;
70148;SDS011;57514;52.164;5.282;2023-05-10T12:16:20;9.75;;;4.05;;
70148;SDS011;57514;52.164;5.282;2023-05-10T12:21:18;8.98;;;3.63;;
70148;SDS011;57514;52.164;5.282;2023-05-10T12:26:16;7.20;;;2.92;;
70148;SDS011;57514;52.164;5.282;2023-05-10T12:28:42;6.70;;;3.05;;
70148;SDS011;57514;52.164;5.282;2023-05-10T12:31:10;7.55;;;2.92;;
70148;SDS011;57514;52.164;5.282;2023-05-10T12:36:05;6.57;;;2.60;;
70148;SDS011;57514;52.164;5.282;2023-05-10T12:38:33;5.28;;;2.40;;
70148;SDS011;57514;52.164;5.282;2023-05-10T12:41:07;5.80;;;2.50;;
70148;SDS011;57514;52.164;5.282;2023-05-10T12:43:37;7.82;;;2.70;;
70148;SDS011;57514;52.164;5.282;2023-05-10T12:48:32;7.82;;;2.78;;
70148;SDS011;57514;52.164;5.282;2023-05-10T12:51:01;7.55;;;2.58;;
70148;SDS011;57514;52.164;5.282;2023-05-10T12:53:28;5.72;;;2.95;;
70148;SDS011;57514;52.164;5.282;2023-05-10T12:55:55;7.82;;;3.40;;
70148;SDS011;57514;52.164;5.282;2023-05-10T12:58:23;6.80;;;2.90;;
70148;SDS011;57514;52.164;5.282;2023-05-10T13:01:01;8.23;;;3.17;;
70148;SDS011;57514;52.164;5.282;2023-05-10T13:03:28;9.02;;;3.90;;
70148;SDS011;57514;52.164;5.282;2023-05-10T13:05:55;11.25;;;4.47;;
70148;SDS011;57514;52.164;5.282;2023-05-10T13:08:23;12.52;;;6.10;;
70148;SDS011;57514;52.164;5.282;2023-05-10T13:10:50;13.85;;;7.22;;
70148;SDS011;57514;52.164;5.282;2023-05-10T13:13:17;15.38;;;6.55;;
70148;SDS011;57514;52.164;5.282;2023-05-10T13:15:45;17.88;;;6.82;;
70148;SDS011;57514;52.164;5.282;2023-05-10T13:18:12;14.23;;;6.45;;
70148;SDS011;57514;52.164;5.282;2023-05-10T13:20:39;14.35;;;6.70;;
70148;SDS011;57514;52.164;5.282;2023-05-10T13:23:07;14.68;;;6.97;;
70148;SDS011;57514;52.164;5.282;2023-05-10T13:25:34;15.63;;;6.75;;
70148;SDS011;57514;52.164;5.282;2023-05-10T13:28:01;17.10;;;7.25;;
70148;SDS011;57514;52.164;5.282;2023-05-10T13:30:28;18.35;;;8.63;;
70148;SDS011;57514;52.164;5.282;2023-05-10T13:32:55;22.27;;;8.90;;
70148;SDS011;57514;52.164;5.282;2023-05-10T13:35:23;18.17;;;7.93;;
70148;SDS011;57514;52.164;5.282;2023-05-10T13:37:50;16.73;;;7.25;;
70148;SDS011;57514;52.164;5.282;2023-05-10T13:40:19;18.63;;;7.75;;
70148;SDS011;57514;52.164;5.282;2023-05-10T13:42:46;18.42;;;7.47;;
70148;SDS011;57514;52.164;5.282;2023-05-10T13:45:13;17.42;;;7.22;;
70148;SDS011;57514;52.164;5.282;2023-05-10T13:47:41;17.05;;;7.75;;
70148;SDS011;57514;52.164;5.282;2023-05-10T13:50:08;19.58;;;8.32;;
70148;SDS011;57514;52.164;5.282;2023-05-10T13:52:36;19.13;;;7.88;;
70148;SDS011;57514;52.164;5.282;2023-05-10T13:55:03;17.23;;;7.25;;
70148;SDS011;57514;52.164;5.282;2023-05-10T13:57:30;16.40;;;7.28;;
70148;SDS011;57514;52.164;5.282;2023-05-10T13:59:58;17.02;;;7.07;;
70148;SDS011;57514;52.164;5.282;2023-05-10T14:02:25;18.30;;;7.75;;
70148;SDS011;57514;52.164;5.282;2023-05-10T14:04:53;18.58;;;6.80;;
70148;SDS011;57514;52.164;5.282;2023-05-10T14:07:21;16.23;;;6.75;;
70148;SDS011;57514;52.164;5.282;2023-05-10T14:09:48;19.35;;;6.75;;
70148;SDS011;57514;52.164;5.282;2023-05-10T14:12:15;17.25;;;6.13;;
70148;SDS011;57514;52.164;5.282;2023-05-10T14:14:42;15.68;;;6.63;;
70148;SDS011;57514;52.164;5.282;2023-05-10T14:17:09;13.73;;;5.65;;
70148;SDS011;57514;52.164;5.282;2023-05-10T14:19:37;16.38;;;6.90;;
70148;SDS011;57514;52.164;5.282;2023-05-10T14:22:05;16.52;;;6.90;;
70148;SDS011;57514;52.164;5.282;2023-05-10T14:24:32;15.82;;;6.35;;
70148;SDS011;57514;52.164;5.282;2023-05-10T14:26:59;15.75;;;6.43;;
70148;SDS011;57514;52.164;5.282;2023-05-10T14:29:27;16.23;;;6.38;;
70148;SDS011;57514;52.164;5.282;2023-05-10T14:31:54;17.00;;;6.90;;
70148;SDS011;57514;52.164;5.282;2023-05-10T14:34:21;15.57;;;6.72;;
70148;SDS011;57514;52.164;5.282;2023-05-10T14:36:48;16.52;;;6.63;;
70148;SDS011;57514;52.164;5.282;2023-05-10T14:39:16;18.05;;;6.82;;
70148;SDS011;57514;52.164;5.282;2023-05-10T14:41:43;15.68;;;6.50;;
70148;SDS011;57514;52.164;5.282;2023-05-10T14:44:11;16.25;;;6.95;;
70148;SDS011;57514;52.164;5.282;2023-05-10T14:46:38;16.50;;;6.97;;
70148;SDS011;57514;52.164;5.282;2023-05-10T14:49:06;16.25;;;6.53;;
70148;SDS011;57514;52.164;5.282;2023-05-10T14:51:34;16.65;;;6.55;;
70148;SDS011;57514;52.164;5.282;2023-05-10T14:54:03;13.57;;;6.18;;
70148;SDS011;57514;52.164;5.282;2023-05-10T14:56:30;15.60;;;6.40;;
70148;SDS011;57514;52.164;5.282;2023-05-10T14:58:57;14.80;;;6.13;;
70148;SDS011;57514;52.164;5.282;2023-05-10T15:01:25;14.82;;;6.47;;
70148;SDS011;57514;52.164;5.282;2023-05-10T15:03:53;13.55;;;6.43;;
70148;SDS011;57514;52.164;5.282;2023-05-10T15:06:30;14.48;;;6.47;;
70148;SDS011;57514;52.164;5.282;2023-05-10T15:08:57;15.23;;;6.45;;
70148;SDS011;57514;52.164;5.282;2023-05-10T15:11:27;16.30;;;6.60;;
70148;SDS011;57514;52.164;5.282;2023-05-10T15:13:55;14.35;;;5.88;;
70148;SDS011;57514;52.164;5.282;2023-05-10T15:16:22;13.52;;;5.78;;
70148;SDS011;57514;52.164;5.282;2023-05-10T15:18:49;13.10;;;5.55;;